createdAt,value
2023-03-27T00:04:26.650Z,91974.87
2023-03-27T00:09:33.975Z,91969.80
2023-03-27T00:14:40.763Z,91975.23
2023-03-27T00:19:47.947Z,91976.50
2023-03-27T00:24:55.033Z,91970.55
2023-03-27T00:30:02.380Z,91974.39
2023-03-27T00:35:11.289Z,91969.52
2023-03-27T00:40:21.406Z,91970.58
2023-03-27T00:45:31.955Z,91969.80
2023-03-27T00:50:42.274Z,91967.58
2023-03-27T00:55:52.632Z,91961.66
2023-03-27T01:01:00.136Z,91960.50
2023-03-27T01:06:07.858Z,91960.72
2023-03-27T01:11:47.609Z,91948.22
2023-03-27T01:17:22.335Z,91945.09
2023-03-27T01:23:02.199Z,91926.69
2023-03-27T01:28:39.134Z,91913.75
2023-03-27T01:34:43.292Z,91902.10
2023-03-27T01:40:30.236Z,91891.58
2023-03-27T01:45:50.641Z,91876.91
2023-03-27T01:51:05.272Z,91859.34
2023-03-27T01:56:25.918Z,91842.09
2023-03-27T02:01:46.081Z,91828.55
2023-03-27T02:07:03.039Z,91828.74
2023-03-27T02:12:16.917Z,91819.27
2023-03-27T02:17:28.224Z,91813.69
2023-03-27T02:22:38.024Z,91805.09
2023-03-27T02:27:47.032Z,91807.48
2023-03-27T02:33:12.105Z,91801.47
2023-03-27T02:38:41.727Z,91796.23
2023-03-27T02:44:11.102Z,91802.02
2023-03-27T02:49:24.861Z,91795.28
2023-03-27T02:54:36.061Z,91797.31
2023-03-27T02:59:47.140Z,91790.49
2023-03-27T03:04:58.442Z,91788.44
2023-03-27T03:10:06.691Z,91800.58
2023-03-27T03:15:14.924Z,91801.05
2023-03-27T03:20:22.312Z,91799.44
2023-03-27T03:25:30.824Z,91794.52
2023-03-27T03:30:39.234Z,91798.23
2023-03-27T03:35:49.265Z,91800.54
2023-03-27T03:40:59.106Z,91804.45
2023-03-27T03:46:06.715Z,91806.97
2023-03-27T03:51:13.878Z,91800.05
2023-03-27T03:56:21.407Z,91814.95
2023-03-27T04:01:28.709Z,91818.56
2023-03-27T04:06:37.838Z,91825.55
2023-03-27T04:11:44.679Z,91821.48
2023-03-27T04:16:51.581Z,91828.16
2023-03-27T04:22:01.013Z,91829.39
2023-03-27T04:27:08.920Z,91853.38
2023-03-27T04:32:20.282Z,91835.16
2023-03-27T04:37:27.355Z,91834.05
2023-03-27T04:42:34.429Z,91834.50
2023-03-27T04:47:41.402Z,91843.24
2023-03-27T04:52:50.320Z,91834.27
2023-03-27T04:57:58.016Z,91843.02
2023-03-27T05:03:04.879Z,91846.78
2023-03-27T05:08:11.670Z,91847.48
2023-03-27T05:13:18.436Z,91859.49
2023-03-27T05:18:25.148Z,91863.48
2023-03-27T05:23:32.524Z,91860.11
2023-03-27T05:28:40.316Z,91863.31
2023-03-27T05:33:47.016Z,91865.59
2023-03-27T05:38:54.697Z,91864.43
2023-03-27T05:44:03.989Z,91677.05
2023-03-27T05:49:12.003Z,91868.81
2023-03-27T05:54:18.734Z,91880.03
2023-03-27T05:59:26.261Z,91884.89
2023-03-27T06:04:34.404Z,91884.68
2023-03-27T06:09:41.453Z,91885.09
2023-03-27T06:14:48.245Z,91892.55
2023-03-27T06:19:55.074Z,91904.11
2023-03-27T06:25:01.915Z,91897.38
2023-03-27T06:30:11.496Z,91904.69
2023-03-27T06:35:19.090Z,91905.44
2023-03-27T06:40:28.504Z,91911.07
2023-03-27T06:45:41.127Z,91912.05
2023-03-27T06:50:50.392Z,91916.30
2023-03-27T06:55:57.777Z,91912.86
2023-03-27T07:01:04.937Z,91926.38
2023-03-27T07:06:11.796Z,91936.20
2023-03-27T07:11:18.802Z,91936.44
2023-03-27T07:16:25.850Z,91935.89
2023-03-27T07:21:32.709Z,91949.19
2023-03-27T07:26:39.435Z,91951.72
2023-03-27T07:31:57.485Z,91960.31
2023-03-27T07:36:54.863Z,91952.95
2023-03-27T07:42:01.623Z,91971.97
2023-03-27T07:47:09.593Z,91966.91
2023-03-27T07:52:17.091Z,91977.38
2023-03-27T07:57:23.867Z,91975.69
2023-03-27T08:02:31.694Z,91996.57
2023-03-27T08:07:41.013Z,92015.42
2023-03-27T08:12:47.825Z,91985.48
2023-03-27T08:17:56.956Z,92015.34
2023-03-27T08:23:04.577Z,91987.80
2023-03-27T08:28:11.790Z,92000.39
2023-03-27T08:33:19.731Z,92017.83
2023-03-27T08:38:28.033Z,92029.41
2023-03-27T08:43:44.498Z,92018.04
2023-03-27T08:48:59.237Z,92017.04
2023-03-27T08:54:19.485Z,92022.41
2023-03-27T08:59:29.742Z,92029.48
2023-03-27T09:04:56.956Z,92042.18
2023-03-27T09:10:23.130Z,92029.41
2023-03-27T09:15:55.955Z,92046.45
2023-03-27T09:21:12.793Z,92041.41
2023-03-27T09:26:26.906Z,92052.86
2023-03-27T09:31:37.633Z,92061.36
2023-03-27T09:36:44.876Z,92073.73
2023-03-27T09:42:07.157Z,92078.70
2023-03-27T09:47:38.808Z,92062.86
2023-03-27T09:52:44.355Z,92085.04
2023-03-27T09:57:50.700Z,92109.88
2023-03-27T10:03:10.974Z,92125.20
2023-03-27T10:08:44.589Z,92126.61
2023-03-27T10:13:53.320Z,92155.42
2023-03-27T10:19:01.740Z,92177.58
2023-03-27T10:24:21.952Z,92207.11
2023-03-27T10:29:35.277Z,92212.72
2023-03-27T10:34:59.119Z,92219.03
2023-03-27T10:40:08.375Z,92233.18
2023-03-27T10:45:21.659Z,92249.33
2023-03-27T10:50:35.743Z,92261.46
2023-03-27T10:56:04.617Z,92260.02
2023-03-27T11:01:35.956Z,92283.23
2023-03-27T11:06:46.604Z,92279.81
2023-03-27T11:12:06.305Z,92290.54
2023-03-27T11:17:18.418Z,92293.43
2023-03-27T11:22:48.033Z,92133.18
2023-03-27T11:28:14.429Z,92313.91
2023-03-27T11:33:42.311Z,92348.42
2023-03-27T11:39:06.629Z,92326.26
2023-03-27T11:44:13.990Z,92353.41
2023-03-27T11:49:33.984Z,92338.31
2023-03-27T11:54:51.301Z,92356.26
2023-03-27T12:00:17.183Z,92352.02
2023-03-27T12:05:48.868Z,92359.84
2023-03-27T12:10:59.182Z,92391.98
2023-03-27T12:16:25.592Z,92407.22
2023-03-27T12:21:47.158Z,92428.00
2023-03-27T12:27:58.919Z,92429.60
2023-03-27T12:33:30.782Z,92431.64
2023-03-27T12:38:42.797Z,92430.88
2023-03-27T12:43:50.966Z,92453.86
2023-03-27T12:49:14.293Z,92457.02
2023-03-27T12:54:38.204Z,92457.70
2023-03-27T13:00:00.280Z,92473.21
2023-03-27T13:05:46.030Z,92492.11
2023-03-27T13:11:15.202Z,92510.57
2023-03-27T13:16:48.684Z,92518.40
2023-03-27T13:22:13.292Z,92538.13
2023-03-27T13:28:12.308Z,92544.70
2023-03-27T13:33:36.991Z,92551.31
2023-03-27T13:38:54.638Z,92568.41
2023-03-27T13:44:04.781Z,92597.08
2023-03-27T13:49:24.703Z,92600.99
2023-03-27T13:54:35.950Z,92610.61
2023-03-27T13:59:50.073Z,92609.66
2023-03-27T14:05:36.426Z,92630.92
2023-03-27T14:11:11.577Z,92634.92
2023-03-27T14:16:23.418Z,92648.01
2023-03-27T14:21:38.841Z,92633.38
2023-03-27T14:26:45.872Z,92638.53
2023-03-27T14:31:54.736Z,92645.20
2023-03-27T14:37:02.543Z,92640.44
2023-03-27T14:42:17.085Z,92650.94
2023-03-27T14:47:25.220Z,92696.30
2023-03-27T14:52:35.650Z,92679.69
2023-03-27T14:57:42.699Z,92694.30
2023-03-27T15:02:52.842Z,92686.86
2023-03-27T15:07:59.913Z,92714.27
2023-03-27T15:13:08.928Z,92708.98
2023-03-27T15:18:24.426Z,92721.84
2023-03-27T15:23:47.769Z,92752.63
2023-03-27T15:29:12.607Z,92551.08
2023-03-27T15:34:31.053Z,92593.30
2023-03-27T15:39:41.491Z,92776.22
2023-03-27T15:44:48.344Z,92789.73
2023-03-27T15:50:27.594Z,92791.88
2023-03-27T15:55:42.531Z,92795.70
2023-03-27T16:00:52.213Z,92795.63
2023-03-27T16:06:00.546Z,92813.69
2023-03-27T16:11:08.628Z,92810.94
2023-03-27T16:16:25.861Z,92619.25
2023-03-27T16:21:36.473Z,92837.80
2023-03-27T16:26:45.291Z,92881.35
2023-03-27T16:31:52.577Z,92885.55
2023-03-27T16:37:00.049Z,92897.59
2023-03-27T16:42:06.843Z,92871.16
2023-03-27T16:47:14.789Z,92901.69
2023-03-27T16:52:21.888Z,92903.64
2023-03-27T16:57:28.976Z,92917.12
2023-03-27T17:02:36.970Z,92900.51
2023-03-27T17:07:45.194Z,92936.84
2023-03-27T17:12:54.095Z,92958.63
2023-03-27T17:18:01.184Z,92972.69
2023-03-27T17:23:07.934Z,93012.88
2023-03-27T17:28:15.410Z,93027.01
2023-03-27T17:33:22.125Z,93043.08
2023-03-27T17:38:29.181Z,93044.25
2023-03-27T17:43:36.480Z,93058.02
2023-03-27T17:48:44.895Z,93055.75
2023-03-27T17:53:51.741Z,93078.11
2023-03-27T17:58:58.610Z,93072.98
2023-03-27T18:04:05.828Z,93062.25
2023-03-27T18:09:12.871Z,93083.20
2023-03-27T18:14:19.750Z,93071.18
2023-03-27T18:19:26.852Z,93076.05
2023-03-27T18:24:33.797Z,93094.73
2023-03-27T18:29:41.175Z,93098.48
2023-03-27T18:34:48.470Z,93132.14
2023-03-27T18:39:55.610Z,93104.00
2023-03-27T18:45:02.565Z,93122.65
2023-03-27T18:50:11.029Z,93137.20
2023-03-27T18:55:18.126Z,93142.35
2023-03-27T19:00:25.124Z,93151.89
2023-03-27T19:05:31.936Z,93162.97
2023-03-27T19:10:40.162Z,93154.91
2023-03-27T19:15:47.447Z,93145.47
2023-03-27T19:20:55.970Z,93160.56
2023-03-27T19:26:12.246Z,93154.33
2023-03-27T19:31:19.462Z,93174.66
2023-03-27T19:36:27.662Z,93170.50
2023-03-27T19:41:34.705Z,93177.47
2023-03-27T19:46:41.540Z,93177.47
2023-03-27T19:51:49.154Z,93185.97
2023-03-27T19:56:56.561Z,93189.64
2023-03-27T20:02:04.509Z,93194.15
2023-03-27T20:07:11.861Z,93186.50
2023-03-27T20:12:20.052Z,93202.87
2023-03-27T20:17:28.532Z,93194.15
2023-03-27T20:22:46.326Z,93206.34
2023-03-27T20:27:44.143Z,93219.42
2023-03-27T20:32:51.310Z,93222.47
2023-03-27T20:37:58.621Z,93225.13
2023-03-27T20:43:06.356Z,93239.72
2023-03-27T20:48:15.476Z,93239.31
2023-03-27T20:53:32.432Z,93257.22
2023-03-27T20:58:40.316Z,93260.01
2023-03-27T21:03:49.286Z,93279.75
2023-03-27T21:08:56.647Z,93269.33
2023-03-27T21:14:03.743Z,93279.48
2023-03-27T21:19:12.477Z,93275.98
2023-03-27T21:24:20.787Z,93285.80
2023-03-27T21:29:28.021Z,93284.31
2023-03-27T21:34:34.720Z,93306.08
2023-03-27T21:39:41.538Z,93311.97
2023-03-27T21:44:53.628Z,93306.30
2023-03-27T21:49:57.896Z,93285.94
2023-03-27T21:55:05.711Z,93314.11
2023-03-27T22:00:14.726Z,93322.70
2023-03-27T22:06:28.915Z,93317.16
2023-03-27T22:11:35.689Z,93325.49
2023-03-27T22:16:43.963Z,93319.35
2023-03-27T22:21:51.177Z,93329.80
2023-03-27T22:26:58.249Z,93319.80
2023-03-27T22:32:05.846Z,93333.17
2023-03-27T22:37:12.922Z,93350.34
2023-03-27T22:42:20.080Z,93349.53
2023-03-27T22:47:27.852Z,93366.82
2023-03-27T22:52:34.787Z,93362.25
2023-03-27T22:57:41.562Z,93372.94
2023-03-27T23:02:48.809Z,93374.75
2023-03-27T23:07:55.776Z,93383.01
2023-03-27T23:13:04.866Z,93384.40
2023-03-27T23:18:12.078Z,93369.16
2023-03-27T23:23:18.912Z,93376.64
2023-03-27T23:28:27.336Z,93365.98
2023-03-27T23:33:41.432Z,93374.21
2023-03-27T23:38:48.383Z,93383.98
2023-03-27T23:43:55.540Z,93388.95
2023-03-27T23:49:02.621Z,93400.21
2023-03-27T23:54:09.369Z,93414.85
2023-03-27T23:59:16.962Z,93416.15
